createdAt,value
2023-05-03T00:01:59.409Z,3.80
2023-05-03T00:04:27.058Z,3.00
2023-05-03T00:06:54.744Z,0.80
2023-05-03T00:09:22.410Z,2.60
2023-05-03T00:11:50.000Z,4.00
2023-05-03T00:14:17.999Z,3.20
2023-05-03T00:16:45.992Z,0.00
2023-05-03T00:19:24.283Z,1.00
2023-05-03T00:21:58.480Z,3.40
2023-05-03T00:24:26.443Z,3.00
2023-05-03T00:26:54.391Z,1.00
2023-05-03T00:29:23.130Z,1.00
2023-05-03T00:31:50.779Z,2.60
2023-05-03T00:34:18.340Z,4.00
2023-05-03T00:36:46.431Z,5.60
2023-05-03T00:39:14.485Z,3.80
2023-05-03T00:41:42.238Z,1.40
2023-05-03T00:44:09.879Z,1.00
2023-05-03T00:46:37.452Z,3.40
2023-05-03T00:49:05.276Z,1.80
2023-05-03T00:51:34.320Z,0.60
2023-05-03T00:54:02.033Z,3.00
2023-05-03T00:56:31.108Z,3.20
2023-05-03T00:59:00.616Z,3.00
2023-05-03T01:01:29.140Z,3.40
2023-05-03T01:03:57.116Z,1.00
2023-05-03T01:06:25.029Z,2.60
2023-05-03T01:08:52.687Z,3.80
2023-05-03T01:11:20.743Z,3.40
2023-05-03T01:13:50.325Z,3.00
2023-05-03T01:16:17.983Z,1.80
2023-05-03T01:18:49.059Z,4.00
2023-05-03T01:21:16.699Z,7.00
2023-05-03T01:23:44.272Z,3.00
2023-05-03T01:26:12.246Z,4.00
2023-05-03T01:28:39.880Z,5.20
2023-05-03T01:31:07.538Z,3.60
2023-05-03T01:33:35.119Z,1.80
2023-05-03T01:36:03.038Z,3.00
2023-05-03T01:38:31.053Z,3.20
2023-05-03T01:40:58.632Z,3.40
2023-05-03T01:43:26.507Z,1.40
2023-05-03T01:45:54.115Z,3.00
2023-05-03T01:48:21.711Z,2.20
2023-05-03T01:50:49.680Z,1.00
2023-05-03T01:53:17.264Z,3.60
2023-05-03T01:55:44.831Z,2.80
2023-05-03T01:58:12.782Z,1.40
2023-05-03T02:00:40.430Z,3.40
2023-05-03T02:03:08.159Z,4.00
2023-05-03T02:05:36.294Z,1.40
2023-05-03T02:08:03.890Z,3.00
2023-05-03T02:10:31.457Z,3.00
2023-05-03T02:12:59.096Z,3.60
2023-05-03T02:15:27.069Z,0.40
2023-05-03T02:17:55.787Z,5.60
2023-05-03T02:20:23.779Z,1.00
2023-05-03T02:22:51.353Z,3.60
2023-05-03T02:25:18.923Z,2.60
2023-05-03T02:27:46.898Z,1.40
2023-05-03T02:30:14.838Z,2.60
2023-05-03T02:32:42.446Z,1.00
2023-05-03T02:35:10.086Z,3.00
2023-05-03T02:37:37.643Z,3.00
2023-05-03T02:40:06.320Z,1.00
2023-05-03T02:42:35.548Z,2.20
2023-05-03T02:45:03.452Z,3.00
2023-05-03T02:47:31.030Z,3.00
2023-05-03T02:49:58.647Z,1.40
2023-05-03T02:52:26.606Z,3.00
2023-05-03T02:54:54.720Z,3.00
2023-05-03T02:57:22.308Z,3.40
2023-05-03T02:59:49.862Z,0.00
2023-05-03T03:02:17.424Z,3.40
2023-05-03T03:04:46.994Z,3.00
2023-05-03T03:07:14.595Z,3.00
2023-05-03T03:09:42.208Z,1.00
2023-05-03T03:12:09.778Z,1.00
2023-05-03T03:14:37.323Z,3.60
2023-05-03T03:17:05.358Z,2.20
2023-05-03T03:19:33.147Z,3.20
2023-05-03T03:22:00.734Z,1.00
2023-05-03T03:24:28.291Z,2.20
2023-05-03T03:26:56.324Z,3.20
2023-05-03T03:29:23.912Z,3.00
2023-05-03T03:31:51.929Z,1.00
2023-05-03T03:34:19.817Z,1.40
2023-05-03T03:36:47.596Z,1.00
2023-05-03T03:39:15.184Z,2.20
2023-05-03T03:41:43.194Z,0.20
2023-05-03T03:44:10.727Z,1.00
2023-05-03T03:46:38.336Z,1.00
2023-05-03T03:49:06.482Z,1.00
2023-05-03T03:51:34.007Z,2.60
2023-05-03T03:54:01.923Z,1.00
2023-05-03T03:56:29.504Z,1.00
2023-05-03T03:58:57.376Z,0.80
2023-05-03T04:01:25.100Z,0.00
2023-05-03T04:03:52.834Z,3.20
2023-05-03T04:06:21.415Z,3.00
2023-05-03T04:08:49.081Z,2.20
2023-05-03T04:11:16.697Z,0.20
2023-05-03T04:13:44.488Z,3.20
2023-05-03T04:16:12.110Z,2.20
2023-05-03T04:18:40.067Z,3.60
2023-05-03T04:21:08.248Z,1.80
2023-05-03T04:23:35.805Z,4.00
2023-05-03T04:26:04.822Z,0.00
2023-05-03T04:28:33.114Z,3.20
2023-05-03T04:31:01.109Z,2.20
2023-05-03T04:33:31.712Z,4.00
2023-05-03T04:35:59.319Z,4.00
2023-05-03T04:38:26.898Z,3.20
2023-05-03T04:40:54.646Z,3.00
2023-05-03T04:43:23.873Z,1.80
2023-05-03T04:45:51.827Z,2.60
2023-05-03T04:48:19.466Z,4.00
2023-05-03T04:50:47.290Z,3.00
2023-05-03T04:53:14.932Z,1.40
2023-05-03T04:55:43.270Z,3.40
2023-05-03T04:58:11.107Z,3.00
2023-05-03T05:00:38.726Z,3.00
2023-05-03T05:03:07.330Z,3.00
2023-05-03T05:05:35.059Z,1.00
2023-05-03T05:08:03.100Z,3.00
2023-05-03T05:10:31.087Z,5.20
2023-05-03T05:12:59.222Z,4.00
2023-05-03T05:15:26.865Z,4.20
2023-05-03T05:17:54.937Z,1.00
2023-05-03T05:20:23.147Z,1.80
2023-05-03T05:22:51.002Z,4.80
2023-05-03T05:25:18.624Z,4.80
2023-05-03T05:27:46.223Z,5.80
2023-05-03T05:30:14.016Z,5.20
2023-05-03T05:32:42.058Z,6.00
2023-05-03T05:35:09.879Z,4.00
2023-05-03T05:37:37.488Z,0.80
2023-05-03T05:40:06.291Z,3.00
2023-05-03T05:42:33.952Z,5.60
2023-05-03T05:45:02.007Z,0.00
2023-05-03T05:47:29.703Z,6.00
2023-05-03T05:49:57.338Z,6.00
2023-05-03T05:52:24.959Z,3.80
2023-05-03T05:54:52.777Z,5.60
2023-05-03T05:57:20.762Z,5.60
2023-05-03T05:59:48.612Z,7.80
2023-05-03T06:02:18.135Z,6.80
2023-05-03T06:04:46.947Z,4.40
2023-05-03T06:07:14.754Z,5.60
2023-05-03T06:09:43.251Z,7.60
2023-05-03T06:12:11.651Z,7.00
2023-05-03T06:14:44.047Z,6.00
2023-05-03T06:17:17.079Z,6.40
2023-05-03T06:19:45.146Z,8.20
2023-05-03T06:22:13.299Z,10.40
2023-05-03T06:24:41.003Z,10.00
2023-05-03T06:27:08.735Z,10.80
2023-05-03T06:29:36.462Z,7.60
2023-05-03T06:32:05.435Z,9.00
2023-05-03T06:34:33.339Z,9.00
2023-05-03T06:37:00.945Z,9.00
2023-05-03T06:39:28.696Z,8.20
2023-05-03T06:41:56.295Z,10.80
2023-05-03T06:44:24.591Z,6.80
2023-05-03T06:46:52.551Z,9.60
2023-05-03T06:49:20.283Z,8.60
2023-05-03T06:51:47.985Z,9.80
2023-05-03T06:54:15.767Z,9.00
2023-05-03T06:56:43.793Z,6.80
2023-05-03T06:59:11.451Z,9.00
2023-05-03T07:01:39.399Z,7.50
2023-05-03T07:04:07.192Z,6.75
2023-05-03T07:06:44.293Z,6.25
2023-05-03T07:09:16.853Z,9.25
2023-05-03T07:11:49.606Z,6.75
2023-05-03T07:14:17.301Z,8.00
2023-05-03T07:16:45.239Z,7.50
2023-05-03T07:19:13.018Z,8.50
2023-05-03T07:21:41.459Z,6.00
2023-05-03T07:24:09.172Z,7.00
2023-05-03T07:26:37.147Z,9.00
2023-05-03T07:29:04.971Z,6.25
2023-05-03T07:31:32.783Z,3.25
2023-05-03T07:34:00.815Z,6.75
2023-05-03T07:36:28.934Z,4.00
2023-05-03T07:38:58.673Z,6.00
2023-05-03T07:41:26.989Z,6.25
2023-05-03T07:43:55.230Z,6.00
2023-05-03T07:46:23.586Z,9.00
2023-05-03T07:48:51.830Z,8.75
2023-05-03T07:51:19.589Z,7.00
2023-05-03T07:53:47.282Z,8.50
2023-05-03T07:56:15.015Z,8.00
2023-05-03T07:58:45.061Z,9.00
2023-05-03T08:01:14.448Z,4.00
2023-05-03T08:03:43.991Z,5.00
2023-05-03T08:06:11.781Z,5.50
2023-05-03T08:08:39.626Z,5.50
2023-05-03T08:11:08.152Z,7.00
2023-05-03T08:13:36.362Z,6.00
2023-05-03T08:16:04.206Z,9.00
2023-05-03T08:18:32.329Z,5.00
2023-05-03T08:21:00.199Z,8.00
2023-05-03T08:23:28.387Z,6.00
2023-05-03T08:25:57.016Z,6.00
2023-05-03T08:28:24.862Z,6.00
2023-05-03T08:30:52.761Z,5.00
2023-05-03T08:33:20.908Z,4.50
2023-05-03T08:35:49.481Z,4.50
2023-05-03T08:38:17.428Z,3.00
2023-05-03T08:40:45.252Z,4.00
2023-05-03T08:43:13.015Z,6.00
2023-05-03T08:45:40.886Z,4.00
2023-05-03T08:48:08.809Z,5.00
2023-05-03T08:50:42.285Z,4.00
2023-05-03T08:53:10.702Z,4.00
2023-05-03T08:55:38.778Z,5.00
2023-05-03T08:58:10.693Z,5.50
2023-05-03T09:00:39.039Z,4.00
2023-05-03T09:03:07.232Z,6.00
2023-05-03T09:05:35.567Z,4.75
2023-05-03T09:08:04.010Z,3.00
2023-05-03T09:10:32.193Z,3.50
2023-05-03T09:13:00.459Z,4.00
2023-05-03T09:15:29.773Z,6.50
2023-05-03T09:17:57.920Z,4.00
2023-05-03T09:20:25.925Z,5.00
2023-05-03T09:22:53.749Z,4.00
2023-05-03T09:25:21.991Z,5.75
2023-05-03T09:27:49.785Z,5.00
2023-05-03T09:30:17.844Z,4.00
2023-05-03T09:32:45.680Z,7.00
2023-05-03T09:35:14.593Z,6.67
2023-05-03T09:37:42.442Z,5.00
2023-05-03T09:40:11.846Z,3.00
2023-05-03T09:42:43.911Z,6.00
2023-05-03T09:45:11.632Z,4.00
2023-05-03T09:47:39.746Z,4.00
2023-05-03T09:50:08.130Z,4.00
2023-05-03T09:52:35.837Z,6.00
2023-05-03T09:55:03.884Z,1.00
2023-05-03T09:57:32.067Z,4.00
2023-05-03T10:00:00.208Z,5.60
2023-05-03T10:02:29.039Z,4.00
2023-05-03T10:04:59.273Z,3.00
2023-05-03T10:07:27.368Z,6.00
2023-05-03T10:09:57.024Z,5.60
2023-05-03T10:12:25.430Z,1.00
2023-05-03T10:14:53.607Z,6.00
2023-05-03T10:17:22.305Z,6.60
2023-05-03T10:19:53.186Z,5.20
2023-05-03T10:22:21.044Z,7.00
2023-05-03T10:24:49.375Z,6.20
2023-05-03T10:27:17.701Z,5.00
2023-05-03T10:29:49.137Z,5.40
2023-05-03T10:32:17.386Z,5.00
2023-05-03T10:34:46.467Z,4.80
2023-05-03T10:37:15.962Z,5.00
2023-05-03T10:39:44.319Z,3.60
2023-05-03T10:42:12.167Z,6.20
2023-05-03T10:44:40.207Z,7.80
2023-05-03T10:47:08.047Z,5.40
2023-05-03T10:49:35.902Z,4.80
2023-05-03T10:52:04.255Z,7.60
2023-05-03T10:54:32.134Z,4.20
2023-05-03T10:57:00.197Z,4.00
2023-05-03T10:59:28.119Z,3.00
2023-05-03T11:01:56.482Z,5.00
2023-05-03T11:04:24.681Z,5.00
2023-05-03T11:06:57.159Z,6.40
2023-05-03T11:09:25.315Z,5.00
2023-05-03T11:11:53.188Z,6.00
2023-05-03T11:14:22.067Z,7.40
2023-05-03T11:16:51.985Z,6.20
2023-05-03T11:19:19.798Z,7.40
2023-05-03T11:21:48.469Z,4.20
2023-05-03T11:24:16.466Z,6.80
2023-05-03T11:26:44.280Z,6.00
2023-05-03T11:29:14.273Z,6.00
2023-05-03T11:31:43.446Z,7.00
2023-05-03T11:34:11.496Z,5.00
2023-05-03T11:36:39.509Z,6.40
2023-05-03T11:39:07.257Z,8.00
2023-05-03T11:41:35.801Z,7.80
2023-05-03T11:44:15.153Z,6.20
2023-05-03T11:46:45.392Z,5.20
2023-05-03T11:49:14.064Z,7.80
2023-05-03T11:51:42.764Z,5.00
2023-05-03T11:54:24.283Z,4.20
2023-05-03T11:56:54.590Z,7.40
2023-05-03T11:59:22.722Z,7.20
2023-05-03T12:01:51.858Z,5.80
2023-05-03T12:04:19.936Z,3.80
2023-05-03T12:06:54.062Z,6.80
2023-05-03T12:09:26.563Z,7.60
2023-05-03T12:11:55.922Z,6.60
2023-05-03T12:14:24.976Z,7.00
2023-05-03T12:16:53.442Z,3.20
2023-05-03T12:19:23.045Z,7.80
2023-05-03T12:22:04.621Z,6.00
2023-05-03T12:24:39.829Z,8.40
2023-05-03T12:27:08.591Z,6.40
2023-05-03T12:29:37.234Z,6.40
2023-05-03T12:32:05.651Z,6.20
2023-05-03T12:34:36.237Z,6.80
2023-05-03T12:37:05.999Z,7.20
2023-05-03T12:39:35.897Z,9.00
2023-05-03T12:42:09.604Z,8.60
2023-05-03T12:44:41.701Z,8.60
2023-05-03T12:47:11.244Z,7.80
2023-05-03T12:49:40.122Z,5.20
2023-05-03T12:54:42.227Z,5.80
2023-05-03T12:57:15.410Z,8.00
2023-05-03T12:59:51.889Z,7.20
2023-05-03T13:03:14.623Z,8.20
2023-05-03T13:05:17.060Z,5.80
2023-05-03T13:07:56.601Z,9.20
2023-05-03T13:10:27.167Z,6.40
2023-05-03T13:12:55.670Z,9.00
2023-05-03T13:15:25.874Z,7.40
2023-05-03T13:17:54.637Z,6.80
2023-05-03T13:20:22.794Z,8.60
2023-05-03T13:22:51.025Z,9.00
2023-05-03T13:25:18.848Z,8.00
2023-05-03T13:27:47.276Z,6.60
2023-05-03T13:30:15.867Z,9.40
2023-05-03T13:32:49.690Z,5.00
2023-05-03T13:35:18.035Z,8.60
2023-05-03T13:37:45.828Z,7.60
2023-05-03T13:40:15.669Z,8.40
2023-05-03T13:42:43.475Z,8.80
2023-05-03T13:45:11.318Z,11.20
2023-05-03T13:48:04.333Z,9.40
2023-05-03T13:50:28.029Z,9.00
2023-05-03T13:52:56.721Z,6.80
2023-05-03T13:55:26.597Z,9.40
2023-05-03T13:57:54.672Z,8.20
2023-05-03T14:00:22.560Z,8.00
2023-05-03T14:02:51.958Z,8.00
2023-05-03T14:05:20.266Z,7.60
2023-05-03T14:07:48.367Z,10.00
2023-05-03T14:10:16.414Z,9.00
2023-05-03T14:12:45.295Z,7.40
2023-05-03T14:15:14.297Z,8.60
2023-05-03T14:17:43.808Z,6.60
2023-05-03T14:20:12.261Z,9.60
2023-05-03T14:22:40.823Z,8.60
2023-05-03T14:25:08.599Z,6.80
2023-05-03T14:27:36.903Z,5.60
2023-05-03T14:30:06.421Z,6.00
2023-05-03T14:32:34.394Z,7.20
2023-05-03T14:35:02.394Z,8.20
2023-05-03T14:37:30.790Z,7.80
2023-05-03T14:39:59.506Z,6.80
2023-05-03T14:42:27.301Z,7.00
2023-05-03T14:44:55.143Z,6.40
2023-05-03T14:47:23.329Z,6.80
2023-05-03T14:49:51.192Z,6.80
2023-05-03T14:52:19.604Z,6.20
2023-05-03T14:54:48.017Z,8.60
2023-05-03T14:57:15.937Z,7.60
2023-05-03T14:59:45.497Z,5.60
2023-05-03T15:02:13.414Z,7.40
2023-05-03T15:04:41.653Z,8.00
2023-05-03T15:07:09.972Z,10.20
2023-05-03T15:09:38.253Z,7.40
2023-05-03T15:12:06.451Z,7.00
2023-05-03T15:14:34.328Z,7.40
2023-05-03T15:17:02.615Z,7.40
2023-05-03T15:19:30.391Z,7.60
2023-05-03T15:21:58.433Z,6.80
2023-05-03T15:24:26.218Z,7.20
2023-05-03T15:26:54.070Z,7.40
2023-05-03T15:29:22.459Z,7.60
2023-05-03T15:31:50.334Z,6.00
2023-05-03T15:34:18.039Z,7.40
2023-05-03T15:36:46.454Z,7.40
2023-05-03T15:39:14.398Z,8.40
2023-05-03T15:41:42.241Z,8.00
2023-05-03T15:44:10.199Z,7.00
2023-05-03T15:46:39.506Z,2.60
2023-05-03T15:49:08.986Z,3.40
2023-05-03T15:51:37.393Z,8.00
2023-05-03T15:54:05.907Z,7.00
2023-05-03T15:56:33.852Z,8.00
2023-05-03T15:59:01.840Z,7.80
2023-05-03T16:01:30.210Z,8.00
2023-05-03T16:04:00.415Z,8.60
2023-05-03T16:06:29.412Z,7.00
2023-05-03T16:08:57.411Z,7.00
2023-05-03T16:11:25.257Z,6.00
2023-05-03T16:13:53.331Z,8.00
2023-05-03T16:16:21.341Z,7.60
2023-05-03T16:18:49.568Z,7.60
2023-05-03T16:21:17.716Z,8.00
2023-05-03T16:23:46.363Z,6.60
2023-05-03T16:26:16.396Z,11.00
2023-05-03T16:28:44.303Z,6.40
2023-05-03T16:31:12.752Z,7.00
2023-05-03T16:33:40.541Z,5.40
2023-05-03T16:36:08.845Z,7.80
2023-05-03T16:38:37.342Z,2.20
2023-05-03T16:41:05.123Z,7.60
2023-05-03T16:43:33.990Z,5.80
2023-05-03T16:46:01.886Z,9.80
2023-05-03T16:48:30.021Z,7.00
2023-05-03T16:50:58.414Z,5.00
2023-05-03T16:53:26.409Z,8.40
2023-05-03T16:55:54.560Z,8.20
2023-05-03T16:58:22.521Z,5.20
2023-05-03T17:00:50.470Z,7.00
2023-05-03T17:03:18.999Z,5.60
2023-05-03T17:05:47.077Z,8.00
2023-05-03T17:08:16.041Z,6.00
2023-05-03T17:10:45.478Z,7.00
2023-05-03T17:13:13.742Z,6.50
2023-05-03T17:15:42.079Z,6.25
2023-05-03T17:18:10.392Z,6.25
2023-05-03T17:20:39.680Z,6.75
2023-05-03T17:23:07.689Z,6.00
2023-05-03T17:25:35.921Z,8.50
2023-05-03T17:28:04.148Z,6.00
2023-05-03T17:30:32.687Z,6.00
2023-05-03T17:33:00.876Z,9.00
2023-05-03T17:35:28.866Z,6.00
2023-05-03T17:37:57.314Z,6.75
2023-05-03T17:40:25.610Z,6.00
2023-05-03T17:42:53.800Z,3.00
2023-05-03T17:45:22.148Z,7.00
2023-05-03T17:47:50.092Z,6.25
2023-05-03T17:50:18.033Z,1.00
2023-05-03T17:52:46.137Z,5.00
2023-05-03T17:55:15.273Z,4.50
2023-05-03T17:57:45.356Z,7.00
2023-05-03T18:00:15.611Z,6.25
2023-05-03T18:02:43.536Z,6.00
2023-05-03T18:05:12.034Z,4.00
2023-05-03T18:07:39.850Z,3.75
2023-05-03T18:10:08.193Z,6.25
2023-05-03T18:12:36.370Z,6.00
2023-05-03T18:15:06.403Z,4.00
2023-05-03T18:17:36.513Z,4.00
2023-05-03T18:20:06.020Z,5.50
2023-05-03T18:22:34.393Z,5.00
2023-05-03T18:25:02.496Z,7.00
2023-05-03T18:27:30.317Z,6.00
2023-05-03T18:29:58.562Z,6.50
2023-05-03T18:32:26.575Z,5.00
2023-05-03T18:34:54.804Z,4.00
2023-05-03T18:37:24.688Z,3.75
2023-05-03T18:39:52.759Z,3.25
2023-05-03T18:42:22.672Z,1.50
2023-05-03T18:44:50.634Z,3.50
2023-05-03T18:47:21.367Z,4.00
2023-05-03T18:49:52.948Z,6.00
2023-05-03T18:52:21.584Z,5.00
2023-05-03T18:54:49.813Z,3.25
2023-05-03T18:57:17.723Z,4.00
2023-05-03T18:59:59.486Z,5.00
2023-05-03T19:02:30.938Z,4.50
2023-05-03T19:04:59.226Z,3.75
2023-05-03T19:07:27.116Z,5.00
2023-05-03T19:09:55.641Z,4.00
2023-05-03T19:12:23.590Z,3.50
2023-05-03T19:14:51.860Z,3.00
2023-05-03T19:17:19.611Z,6.25
2023-05-03T19:19:47.506Z,4.50
2023-05-03T19:22:16.109Z,6.00
2023-05-03T19:24:44.219Z,4.00
2023-05-03T19:27:12.661Z,4.00
2023-05-03T19:29:40.461Z,5.50
2023-05-03T19:32:08.212Z,4.00
2023-05-03T19:34:37.118Z,4.00
2023-05-03T19:37:05.298Z,4.00
2023-05-03T19:39:35.889Z,0.50
2023-05-03T19:42:04.262Z,3.00
2023-05-03T19:44:32.198Z,4.00
2023-05-03T19:47:00.437Z,5.50
2023-05-03T19:49:28.290Z,4.00
2023-05-03T19:51:56.228Z,5.50
2023-05-03T19:54:24.013Z,5.00
2023-05-03T19:56:51.971Z,5.00
2023-05-03T19:59:20.147Z,6.00
2023-05-03T20:01:48.157Z,4.00
2023-05-03T20:04:17.834Z,4.00
2023-05-03T20:06:45.723Z,5.50
2023-05-03T20:09:13.483Z,3.00
2023-05-03T20:11:41.839Z,6.00
2023-05-03T20:14:09.661Z,2.50
2023-05-03T20:16:40.033Z,5.50
2023-05-03T20:19:07.937Z,1.00
2023-05-03T20:21:35.761Z,3.50
2023-05-03T20:24:05.320Z,6.00
2023-05-03T20:26:33.582Z,2.50
2023-05-03T20:29:01.498Z,6.00
2023-05-03T20:31:29.514Z,4.00
2023-05-03T20:33:57.385Z,6.25
2023-05-03T20:36:25.646Z,5.50
2023-05-03T20:38:54.946Z,6.00
2023-05-03T20:41:23.453Z,0.00
2023-05-03T20:43:51.555Z,3.00
2023-05-03T20:46:19.417Z,3.75
2023-05-03T20:48:48.344Z,6.00
2023-05-03T20:51:16.286Z,3.75
2023-05-03T20:53:44.533Z,3.00
2023-05-03T20:56:12.786Z,6.00
2023-05-03T20:58:40.769Z,6.00
2023-05-03T21:01:09.115Z,6.00
2023-05-03T21:03:36.917Z,5.50
2023-05-03T21:06:05.720Z,3.00
2023-05-03T21:08:33.428Z,6.00
2023-05-03T21:11:01.205Z,4.00
2023-05-03T21:13:29.282Z,3.50
2023-05-03T21:15:56.998Z,3.33
2023-05-03T21:18:25.164Z,5.50
2023-05-03T21:20:53.047Z,3.50
2023-05-03T21:23:20.750Z,5.00
2023-05-03T21:25:48.814Z,4.50
2023-05-03T21:28:17.460Z,4.50
2023-05-03T21:30:48.560Z,5.00
2023-05-03T21:33:16.596Z,4.50
2023-05-03T21:35:44.387Z,1.00
2023-05-03T21:38:12.522Z,1.00
2023-05-03T21:40:40.247Z,4.00
2023-05-03T21:43:09.383Z,4.75
2023-05-03T21:45:37.207Z,3.00
2023-05-03T21:48:05.245Z,1.00
2023-05-03T21:50:33.369Z,3.00
2023-05-03T21:53:01.203Z,1.50
2023-05-03T21:55:30.423Z,3.75
2023-05-03T21:57:58.218Z,4.50
2023-05-03T22:00:27.470Z,5.00
2023-05-03T22:02:55.985Z,5.00
2023-05-03T22:05:24.514Z,3.75
2023-05-03T22:07:52.524Z,3.00
2023-05-03T22:10:20.334Z,6.00
2023-05-03T22:12:48.102Z,4.00
2023-05-03T22:15:16.067Z,4.00
2023-05-03T22:17:44.090Z,3.00
2023-05-03T22:20:12.317Z,6.00
2023-05-03T22:22:39.968Z,6.80
2023-05-03T22:25:08.112Z,6.00
2023-05-03T22:27:36.111Z,6.40
2023-05-03T22:30:04.025Z,5.00
2023-05-03T22:32:32.585Z,6.25
2023-05-03T22:35:00.240Z,1.00
2023-05-03T22:37:27.958Z,4.00
2023-05-03T22:39:55.956Z,5.60
2023-05-03T22:42:23.629Z,6.00
2023-05-03T22:44:51.267Z,4.00
2023-05-03T22:47:18.938Z,4.00
2023-05-03T22:49:46.549Z,6.00
2023-05-03T22:52:14.515Z,4.00
2023-05-03T22:54:42.147Z,5.00
2023-05-03T22:57:09.761Z,2.20
2023-05-03T22:59:37.795Z,4.80
2023-05-03T23:02:06.963Z,4.00
2023-05-03T23:04:34.972Z,3.20
2023-05-03T23:07:03.296Z,6.00
2023-05-03T23:09:31.073Z,3.00
2023-05-03T23:11:58.970Z,3.00
2023-05-03T23:14:26.528Z,3.00
2023-05-03T23:16:54.531Z,4.80
2023-05-03T23:19:22.141Z,3.60
2023-05-03T23:21:49.994Z,5.20
2023-05-03T23:24:18.168Z,3.60
2023-05-03T23:26:45.741Z,6.00
2023-05-03T23:29:14.257Z,2.60
2023-05-03T23:31:42.409Z,4.00
2023-05-03T23:34:10.697Z,3.00
2023-05-03T23:36:38.273Z,3.00
2023-05-03T23:39:05.916Z,3.20
2023-05-03T23:41:34.424Z,4.00
2023-05-03T23:44:02.276Z,3.60
2023-05-03T23:46:31.014Z,3.20
2023-05-03T23:48:58.606Z,2.20
2023-05-03T23:51:26.168Z,3.80
2023-05-03T23:53:54.576Z,9.00
2023-05-03T23:56:22.152Z,9.00
2023-05-03T23:58:49.700Z,6.60
